Time;durP1;ratioP1;P1;durP2;ratioP2;P2;SDS_P1;SDS_P2;PMS_P1;PMS_P2;Temp;Humidity;BMP_temperature;BMP_pressure;BME280_temperature;BME280_humidity;BME280_pressure;Samples;Min_cycle;Max_cycle;Signal;HPM_P1;HPM_P2
2023/08/26 00:00:48;;;;;;;;;;;22.90;90.90;;;;;;5062359;28;20010;-72
2023/08/26 00:03:15;;;;;;;;;;;22.90;91.00;;;;;;5058746;28;19976;-71
2023/08/26 00:05:42;;;;;;;;;;;22.80;91.10;;;;;;5061830;28;20030;-72
2023/08/26 00:08:09;;;;;;;;;;;22.80;91.10;;;;;;5060395;28;19988;-73
2023/08/26 00:10:35;;;;;;;;;;;22.80;91.30;;;;;;5060312;28;19989;-73
2023/08/26 00:13:02;;;;;;;;;;;22.80;91.40;;;;;;5063734;28;19975;-72
2023/08/26 00:15:29;;;;;;;;;;;22.80;91.50;;;;;;5061520;28;20038;-72
2023/08/26 00:17:56;;;;;;;;;;;22.70;91.50;;;;;;5061360;28;20345;-72
2023/08/26 00:20:23;;;;;;;;;;;22.70;91.50;;;;;;5057616;28;19975;-73
2023/08/26 00:22:50;;;;;;;;;;;22.70;91.50;;;;;;5065858;28;19979;-73
2023/08/26 00:25:17;;;;;;;;;;;22.70;91.50;;;;;;5065382;28;19975;-73
2023/08/26 00:27:43;;;;;;;;;;;22.70;91.50;;;;;;5062732;28;20351;-73
2023/08/26 00:30:10;;;;;;;;;;;22.60;91.50;;;;;;5059885;28;19936;-73
2023/08/26 00:32:37;;;;;;;;;;;22.60;91.80;;;;;;5062908;28;19928;-73
2023/08/26 00:35:05;;;;;;;;;;;22.60;91.50;;;;;;5062505;28;19932;-74
2023/08/26 00:37:32;;;;;;;;;;;22.60;91.50;;;;;;5062330;28;19951;-73
2023/08/26 00:39:58;;;;;;;;;;;22.50;91.50;;;;;;5060286;28;20442;-73
2023/08/26 00:42:25;;;;;;;;;;;22.50;91.50;;;;;;5060557;28;19935;-73
2023/08/26 00:44:51;;;;;;;;;;;22.50;91.50;;;;;;5059076;28;20425;-73
2023/08/26 00:47:18;;;;;;;;;;;22.50;91.60;;;;;;5057991;28;19935;-73
2023/08/26 00:49:44;;;;;;;;;;;22.40;91.60;;;;;;5060748;28;19929;-73
2023/08/26 00:52:12;;;;;;;;;;;22.50;91.60;;;;;;5062708;28;19933;-74
2023/08/26 00:54:39;;;;;;;;;;;22.40;91.60;;;;;;5061223;28;19932;-73
2023/08/26 00:57:05;;;;;;;;;;;22.40;91.60;;;;;;5059790;28;19982;-73
2023/08/26 00:59:32;;;;;;;;;;;22.40;91.70;;;;;;5059138;28;19935;-72
2023/08/26 01:02:00;;;;;;;;;;;22.40;91.70;;;;;;5057696;28;19932;-74
2023/08/26 01:04:27;;;;;;;;;;;22.30;91.70;;;;;;5057902;28;20384;-73
2023/08/26 01:06:53;;;;;;;;;;;22.30;91.70;;;;;;5059863;28;19944;-74
2023/08/26 01:09:21;;;;;;;;;;;22.30;91.80;;;;;;5060869;28;19960;-74
2023/08/26 01:11:53;;;;;;;;;;;22.30;91.90;;;;;;5061517;28;19929;-73
2023/08/26 01:14:23;;;;;;;;;;;22.30;91.90;;;;;;5059549;28;19951;-73
2023/08/26 01:16:49;;;;;;;;;;;22.30;91.90;;;;;;5061824;28;19928;-73
2023/08/26 01:19:20;;;;;;;;;;;22.20;92.00;;;;;;5061765;28;19929;-74
2023/08/26 01:21:50;;;;;;;;;;;22.20;92.00;;;;;;5058067;28;19933;-73
2023/08/26 01:24:17;;;;;;;;;;;22.20;92.10;;;;;;5059584;28;19935;-74
2023/08/26 01:26:44;;;;;;;;;;;22.20;92.10;;;;;;5062362;28;19936;-73
2023/08/26 01:29:11;;;;;;;;;;;22.20;92.50;;;;;;5062958;28;19932;-73
2023/08/26 01:31:38;;;;;;;;;;;22.10;92.30;;;;;;5063129;28;19929;-73
2023/08/26 01:34:11;;;;;;;;;;;22.10;92.30;;;;;;5053454;28;19929;-73
2023/08/26 01:36:42;;;;;;;;;;;22.10;92.40;;;;;;5058683;28;19924;-73
2023/08/26 01:39:11;;;;;;;;;;;22.10;92.50;;;;;;5057362;28;20090;-74
2023/08/26 01:41:42;;;;;;;;;;;22.00;92.50;;;;;;5061504;28;19933;-73
2023/08/26 01:44:10;;;;;;;;;;;22.10;92.60;;;;;;5058988;28;20035;-73
2023/08/26 01:46:37;;;;;;;;;;;22.00;92.70;;;;;;5059256;28;19948;-74
2023/08/26 01:49:04;;;;;;;;;;;22.00;92.70;;;;;;5061833;28;20342;-73
2023/08/26 01:51:30;;;;;;;;;;;22.00;92.80;;;;;;5062271;28;19943;-73
2023/08/26 01:53:56;;;;;;;;;;;22.00;92.80;;;;;;5058204;28;20567;-72
2023/08/26 01:56:22;;;;;;;;;;;22.00;92.90;;;;;;5056667;28;19924;-73
2023/08/26 01:58:50;;;;;;;;;;;21.90;92.90;;;;;;5059676;28;19943;-72
2023/08/26 02:01:17;;;;;;;;;;;21.90;92.90;;;;;;5059206;28;20019;-72
2023/08/26 02:03:44;;;;;;;;;;;21.90;93.00;;;;;;5058539;28;20340;-72
2023/08/26 02:06:10;;;;;;;;;;;21.90;93.10;;;;;;5060587;28;19937;-73
2023/08/26 02:08:37;;;;;;;;;;;21.90;93.10;;;;;;5060028;28;19929;-73
2023/08/26 02:11:03;;;;;;;;;;;21.90;93.10;;;;;;5054865;28;19939;-73
2023/08/26 02:13:30;;;;;;;;;;;21.90;93.20;;;;;;5056430;28;19940;-73
2023/08/26 02:15:58;;;;;;;;;;;21.80;93.10;;;;;;5058392;28;20014;-73
2023/08/26 02:18:25;;;;;;;;;;;21.80;93.20;;;;;;5054662;28;19929;-73
2023/08/26 02:20:51;;;;;;;;;;;21.90;93.20;;;;;;5056383;28;20011;-74
2023/08/26 02:23:18;;;;;;;;;;;21.80;93.20;;;;;;5061760;28;19996;-73
2023/08/26 02:25:44;;;;;;;;;;;21.80;93.30;;;;;;5056257;28;20503;-73
2023/08/26 02:28:11;;;;;;;;;;;21.80;93.30;;;;;;5059248;28;19979;-74
2023/08/26 02:30:38;;;;;;;;;;;21.80;93.30;;;;;;5057357;28;19991;-73
2023/08/26 02:33:06;;;;;;;;;;;21.80;93.40;;;;;;5060380;28;19982;-73
2023/08/26 02:35:34;;;;;;;;;;;21.80;93.40;;;;;;5058301;28;20002;-73
2023/08/26 02:38:00;;;;;;;;;;;21.80;93.40;;;;;;5058217;28;19980;-73
2023/08/26 02:40:27;;;;;;;;;;;21.70;93.40;;;;;;5061203;28;20013;-73
2023/08/26 02:42:53;;;;;;;;;;;21.70;93.50;;;;;;5056414;28;19980;-72
2023/08/26 02:45:20;;;;;;;;;;;21.70;93.50;;;;;;5062173;28;19975;-72
2023/08/26 02:47:47;;;;;;;;;;;21.70;93.50;;;;;;5060611;28;19980;-73
2023/08/26 02:50:15;;;;;;;;;;;21.70;93.50;;;;;;5055980;28;20023;-74
2023/08/26 02:52:41;;;;;;;;;;;21.70;93.50;;;;;;5059960;28;20078;-73
2023/08/26 02:55:09;;;;;;;;;;;21.70;93.50;;;;;;5059479;28;19987;-73
2023/08/26 02:57:35;;;;;;;;;;;21.70;93.50;;;;;;5060021;28;20005;-73
2023/08/26 03:00:04;;;;;;;;;;;21.70;93.50;;;;;;5056912;28;19991;-73
2023/08/26 03:02:30;;;;;;;;;;;21.60;93.50;;;;;;5059843;28;20711;-73
2023/08/26 03:04:57;;;;;;;;;;;21.60;93.50;;;;;;5060629;28;19979;-73
2023/08/26 03:07:24;;;;;;;;;;;21.60;93.50;;;;;;5058882;28;20040;-73
2023/08/26 03:09:51;;;;;;;;;;;21.60;93.50;;;;;;5059717;28;19986;-73
2023/08/26 03:12:17;;;;;;;;;;;21.60;93.50;;;;;;5061033;28;19976;-73
2023/08/26 03:14:44;;;;;;;;;;;21.60;93.50;;;;;;5058400;28;19982;-73
2023/08/26 03:17:11;;;;;;;;;;;21.60;93.50;;;;;;5059787;28;19995;-73
2023/08/26 03:19:37;;;;;;;;;;;21.60;93.50;;;;;;5062611;28;19995;-73
2023/08/26 03:22:04;;;;;;;;;;;21.60;93.50;;;;;;5058787;28;19976;-74
2023/08/26 03:24:34;;;;;;;;;;;21.50;93.40;;;;;;5057469;28;19975;-73
2023/08/26 03:27:01;;;;;;;;;;;21.50;93.40;;;;;;5061606;28;19995;-73
2023/08/26 03:29:28;;;;;;;;;;;21.50;93.40;;;;;;5061625;28;20404;-72
2023/08/26 03:31:54;;;;;;;;;;;21.50;93.40;;;;;;5060427;28;19999;-73
2023/08/26 03:34:21;;;;;;;;;;;21.50;93.40;;;;;;5057027;28;19976;-73
2023/08/26 03:36:47;;;;;;;;;;;21.50;93.40;;;;;;5058105;28;19999;-73
2023/08/26 03:39:14;;;;;;;;;;;21.50;93.40;;;;;;5055302;28;19975;-73
2023/08/26 03:41:42;;;;;;;;;;;21.50;93.40;;;;;;5060282;28;19976;-72
2023/08/26 03:44:08;;;;;;;;;;;21.50;93.40;;;;;;5062476;28;19979;-74
2023/08/26 03:46:35;;;;;;;;;;;21.50;93.40;;;;;;5056145;28;20003;-73
2023/08/26 03:49:02;;;;;;;;;;;21.50;93.40;;;;;;5054249;28;19976;-73
2023/08/26 03:51:29;;;;;;;;;;;21.40;93.40;;;;;;5052539;28;19994;-73
2023/08/26 03:53:55;;;;;;;;;;;21.40;93.40;;;;;;5059904;28;19979;-72
2023/08/26 03:56:22;;;;;;;;;;;21.40;93.40;;;;;;5057194;28;20385;-72
2023/08/26 03:58:56;;;;;;;;;;;21.40;93.40;;;;;;5052929;28;20770;-73
2023/08/26 04:01:23;;;;;;;;;;;21.40;93.50;;;;;;5056074;28;20440;-73
2023/08/26 04:03:50;;;;;;;;;;;21.40;93.50;;;;;;5055869;28;19976;-72
2023/08/26 04:06:17;;;;;;;;;;;21.40;93.50;;;;;;5054187;28;19998;-73
2023/08/26 04:08:44;;;;;;;;;;;21.40;93.50;;;;;;5059054;28;20034;-73
2023/08/26 04:11:11;;;;;;;;;;;21.40;93.50;;;;;;5057390;28;19979;-73
2023/08/26 04:13:37;;;;;;;;;;;21.30;93.60;;;;;;5054485;28;20376;-72
2023/08/26 04:16:05;;;;;;;;;;;21.30;93.50;;;;;;5059657;28;19991;-73
2023/08/26 04:18:32;;;;;;;;;;;21.30;93.60;;;;;;5058994;28;20095;-73
2023/08/26 04:20:58;;;;;;;;;;;21.30;93.50;;;;;;5053678;28;20073;-73
2023/08/26 04:23:25;;;;;;;;;;;21.30;93.50;;;;;;5058270;28;20479;-73
2023/08/26 04:25:52;;;;;;;;;;;21.30;93.50;;;;;;5058670;28;19995;-73
2023/08/26 04:28:18;;;;;;;;;;;21.30;93.50;;;;;;5056998;28;19987;-73
2023/08/26 04:30:45;;;;;;;;;;;21.20;93.50;;;;;;5055043;28;19996;-73
2023/08/26 04:33:13;;;;;;;;;;;21.30;93.50;;;;;;5052279;28;19991;-73
2023/08/26 04:35:40;;;;;;;;;;;21.20;93.50;;;;;;5053151;28;20003;-73
2023/08/26 04:38:06;;;;;;;;;;;21.20;93.50;;;;;;5059443;28;19983;-73
2023/08/26 04:40:33;;;;;;;;;;;21.20;93.50;;;;;;5058374;28;19987;-73
2023/08/26 04:43:03;;;;;;;;;;;21.20;93.50;;;;;;5056528;28;20970;-72
2023/08/26 04:45:30;;;;;;;;;;;21.20;93.50;;;;;;5059341;28;19996;-73
2023/08/26 04:47:56;;;;;;;;;;;21.20;93.50;;;;;;5053736;28;19975;-73
2023/08/26 04:50:25;;;;;;;;;;;21.20;93.50;;;;;;5062119;28;20944;-73
2023/08/26 04:52:52;;;;;;;;;;;21.10;93.50;;;;;;5062668;28;20699;-73
2023/08/26 04:55:18;;;;;;;;;;;21.10;93.80;;;;;;5056874;28;19976;-73
2023/08/26 04:57:45;;;;;;;;;;;21.10;93.40;;;;;;5059207;28;19980;-73
2023/08/26 05:00:13;;;;;;;;;;;21.10;93.40;;;;;;5060578;28;19992;-73
2023/08/26 05:02:39;;;;;;;;;;;21.10;93.40;;;;;;5052382;28;19986;-73
2023/08/26 05:05:06;;;;;;;;;;;21.10;93.40;;;;;;5059834;28;19976;-73
2023/08/26 05:07:34;;;;;;;;;;;21.10;93.50;;;;;;5060372;28;19991;-73
2023/08/26 05:10:01;;;;;;;;;;;21.00;93.40;;;;;;5059549;28;19990;-73
2023/08/26 05:12:27;;;;;;;;;;;21.10;93.40;;;;;;5058656;28;19975;-72
2023/08/26 05:14:54;;;;;;;;;;;21.10;93.40;;;;;;5060286;28;19984;-73
2023/08/26 05:17:20;;;;;;;;;;;21.00;93.40;;;;;;5062464;28;19995;-73
2023/08/26 05:19:47;;;;;;;;;;;21.10;93.40;;;;;;5064321;28;19975;-72
2023/08/26 05:22:14;;;;;;;;;;;21.00;93.40;;;;;;5061482;28;19980;-73
2023/08/26 05:24:42;;;;;;;;;;;21.00;93.40;;;;;;5060273;28;19976;-73
2023/08/26 05:27:08;;;;;;;;;;;20.90;93.30;;;;;;5063566;28;19991;-73
2023/08/26 05:29:35;;;;;;;;;;;20.90;93.30;;;;;;5063339;28;19976;-73
2023/08/26 05:32:01;;;;;;;;;;;21.00;93.30;;;;;;5057802;28;19995;-72
2023/08/26 05:34:28;;;;;;;;;;;20.90;93.30;;;;;;5058627;28;19983;-73
2023/08/26 05:36:54;;;;;;;;;;;20.90;93.30;;;;;;5059130;28;20034;-73
2023/08/26 05:39:21;;;;;;;;;;;20.90;93.30;;;;;;5055201;28;19984;-73
2023/08/26 05:41:49;;;;;;;;;;;20.90;93.20;;;;;;5059421;28;19999;-72
2023/08/26 05:44:16;;;;;;;;;;;20.90;93.20;;;;;;5054894;28;19976;-72
2023/08/26 05:46:42;;;;;;;;;;;20.90;93.20;;;;;;5052651;28;20010;-72
2023/08/26 05:49:09;;;;;;;;;;;20.90;93.20;;;;;;5061199;28;19982;-72
2023/08/26 05:51:35;;;;;;;;;;;20.90;93.20;;;;;;5060136;28;19979;-72
2023/08/26 05:54:02;;;;;;;;;;;20.90;93.20;;;;;;5060979;28;20018;-72
2023/08/26 05:56:28;;;;;;;;;;;20.80;93.20;;;;;;5061551;28;19991;-73
2023/08/26 05:58:56;;;;;;;;;;;20.90;93.20;;;;;;5054074;28;19987;-72
2023/08/26 06:01:23;;;;;;;;;;;20.90;93.30;;;;;;5061115;28;20337;-73
2023/08/26 06:03:49;;;;;;;;;;;20.80;93.20;;;;;;5056720;28;19975;-73
2023/08/26 06:06:16;;;;;;;;;;;20.90;93.20;;;;;;5065045;28;20361;-72
2023/08/26 06:08:42;;;;;;;;;;;20.80;93.20;;;;;;5061665;28;19980;-73
2023/08/26 06:11:09;;;;;;;;;;;20.80;93.20;;;;;;5064639;28;19983;-72
2023/08/26 06:13:35;;;;;;;;;;;20.80;93.20;;;;;;5055045;28;19975;-71
2023/08/26 06:16:03;;;;;;;;;;;20.90;93.20;;;;;;5060890;28;19995;-73
2023/08/26 06:18:30;;;;;;;;;;;20.80;93.20;;;;;;5064511;28;19976;-73
2023/08/26 06:20:56;;;;;;;;;;;20.80;93.10;;;;;;5062074;28;20452;-72
2023/08/26 06:23:23;;;;;;;;;;;20.80;93.10;;;;;;5059476;28;20445;-73
2023/08/26 06:25:53;;;;;;;;;;;20.80;93.10;;;;;;5060559;28;19999;-72
2023/08/26 06:28:19;;;;;;;;;;;20.80;93.10;;;;;;5057772;28;19982;-73
2023/08/26 06:30:46;;;;;;;;;;;20.80;93.10;;;;;;5053925;28;19991;-72
2023/08/26 06:33:14;;;;;;;;;;;20.80;93.10;;;;;;5058479;28;19976;-73
2023/08/26 06:35:41;;;;;;;;;;;20.80;93.10;;;;;;5057313;28;19999;-72
2023/08/26 06:38:08;;;;;;;;;;;20.80;93.10;;;;;;5058649;28;19975;-72
2023/08/26 06:40:34;;;;;;;;;;;20.80;93.20;;;;;;5052403;28;19995;-73
2023/08/26 06:43:02;;;;;;;;;;;20.80;93.20;;;;;;5061603;28;19987;-72
2023/08/26 06:45:29;;;;;;;;;;;20.80;93.10;;;;;;5058067;28;20002;-73
2023/08/26 06:47:55;;;;;;;;;;;20.80;93.10;;;;;;5059878;28;19980;-74
2023/08/26 06:50:23;;;;;;;;;;;20.80;93.10;;;;;;5061925;28;19991;-73
2023/08/26 06:52:50;;;;;;;;;;;20.80;93.10;;;;;;5054426;28;19976;-74
2023/08/26 06:55:17;;;;;;;;;;;20.80;93.10;;;;;;5060511;28;19982;-73
2023/08/26 06:57:43;;;;;;;;;;;20.80;93.10;;;;;;5053400;28;19975;-72
2023/08/26 07:00:10;;;;;;;;;;;20.80;93.00;;;;;;5056412;28;19975;-73
2023/08/26 07:02:37;;;;;;;;;;;20.80;93.00;;;;;;5053655;28;19975;-72
2023/08/26 07:05:04;;;;;;;;;;;20.80;92.80;;;;;;5054473;28;19979;-73
2023/08/26 07:07:31;;;;;;;;;;;20.80;92.60;;;;;;5059813;28;19991;-73
2023/08/26 07:09:58;;;;;;;;;;;20.80;92.50;;;;;;5054437;28;19971;-72
2023/08/26 07:12:24;;;;;;;;;;;20.80;92.40;;;;;;5057514;28;20609;-73
2023/08/26 07:14:51;;;;;;;;;;;20.80;92.30;;;;;;5055121;28;19976;-72
2023/08/26 07:17:18;;;;;;;;;;;20.90;92.10;;;;;;5055688;28;20003;-73
2023/08/26 07:19:44;;;;;;;;;;;20.90;92.00;;;;;;5057161;28;20505;-73
2023/08/26 07:22:11;;;;;;;;;;;20.90;91.80;;;;;;5057705;28;19998;-73
2023/08/26 07:24:39;;;;;;;;;;;20.90;91.50;;;;;;5059308;28;20015;-73
2023/08/26 07:27:05;;;;;;;;;;;20.80;91.40;;;;;;5059309;28;20001;-72
2023/08/26 07:29:32;;;;;;;;;;;20.90;91.40;;;;;;5053276;28;19987;-72
2023/08/26 07:31:58;;;;;;;;;;;20.90;91.30;;;;;;5058988;28;20004;-73
2023/08/26 07:34:25;;;;;;;;;;;20.90;91.20;;;;;;5058214;28;20001;-73
2023/08/26 07:36:52;;;;;;;;;;;20.90;91.30;;;;;;5056772;28;20417;-72
2023/08/26 07:39:19;;;;;;;;;;;20.90;91.10;;;;;;5054477;28;20392;-73
2023/08/26 07:41:46;;;;;;;;;;;20.90;91.00;;;;;;5052780;28;20842;-72
2023/08/26 07:44:13;;;;;;;;;;;20.90;90.90;;;;;;5054915;28;19976;-73
2023/08/26 07:46:39;;;;;;;;;;;20.90;90.70;;;;;;5060151;28;20003;-73
2023/08/26 07:49:06;;;;;;;;;;;21.00;88.50;;;;;;5062015;28;19987;-75
2023/08/26 07:51:33;;;;;;;;;;;21.10;83.20;;;;;;5060586;28;19975;-76
2023/08/26 07:53:59;;;;;;;;;;;21.10;84.10;;;;;;5056426;28;19980;-75
2023/08/26 07:56:26;;;;;;;;;;;21.10;85.00;;;;;;5052024;28;19998;-74
2023/08/26 07:58:53;;;;;;;;;;;21.10;85.40;;;;;;5050726;28;20436;-75
2023/08/26 08:01:20;;;;;;;;;;;21.00;86.00;;;;;;5057298;28;20002;-75
2023/08/26 08:03:46;;;;;;;;;;;21.00;87.10;;;;;;5055657;28;19980;-75
2023/08/26 08:06:13;;;;;;;;;;;21.00;86.50;;;;;;5057266;28;19995;-75
2023/08/26 08:08:39;;;;;;;;;;;21.10;86.70;;;;;;5053864;28;19987;-75
2023/08/26 08:11:06;;;;;;;;;;;21.00;86.70;;;;;;5059720;28;19983;-74
2023/08/26 08:13:33;;;;;;;;;;;21.10;86.60;;;;;;5059985;28;19998;-74
2023/08/26 08:16:00;;;;;;;;;;;21.10;86.70;;;;;;5056747;28;19999;-74
2023/08/26 08:18:27;;;;;;;;;;;21.10;86.70;;;;;;5059665;28;19980;-75
2023/08/26 08:20:54;;;;;;;;;;;21.10;86.70;;;;;;5059234;28;20006;-75
2023/08/26 08:23:21;;;;;;;;;;;21.10;86.90;;;;;;5066006;28;19986;-76
2023/08/26 08:25:48;;;;;;;;;;;21.10;86.80;;;;;;5063194;28;20090;-75
2023/08/26 08:28:14;;;;;;;;;;;21.20;86.90;;;;;;5063268;28;19980;-75
2023/08/26 08:30:41;;;;;;;;;;;21.20;86.80;;;;;;5056278;28;20353;-75
2023/08/26 08:33:08;;;;;;;;;;;21.20;86.60;;;;;;5065601;28;19976;-74
2023/08/26 08:35:35;;;;;;;;;;;21.20;86.30;;;;;;5059255;28;19991;-75
2023/08/26 08:38:02;;;;;;;;;;;21.20;85.80;;;;;;5063992;28;19986;-75
2023/08/26 08:40:29;;;;;;;;;;;21.30;86.00;;;;;;5058770;28;19980;-75
2023/08/26 08:42:59;;;;;;;;;;;21.30;86.00;;;;;;5058035;28;20481;-80
2023/08/26 08:45:26;;;;;;;;;;;21.40;86.00;;;;;;5058945;28;20000;-80
2023/08/26 08:47:53;;;;;;;;;;;21.30;85.60;;;;;;5064215;28;20021;-80
2023/08/26 08:50:21;;;;;;;;;;;21.40;86.20;;;;;;5065383;28;19976;-75
2023/08/26 08:52:48;;;;;;;;;;;21.30;85.10;;;;;;5064524;28;19990;-75
2023/08/26 08:55:15;;;;;;;;;;;21.40;84.80;;;;;;5064270;28;19975;-75
2023/08/26 08:57:43;;;;;;;;;;;21.40;84.50;;;;;;5060008;28;19979;-74
2023/08/26 09:00:11;;;;;;;;;;;21.40;84.00;;;;;;5062325;28;19979;-76
2023/08/26 09:02:39;;;;;;;;;;;21.50;84.10;;;;;;5061540;28;20578;-75
2023/08/26 09:05:06;;;;;;;;;;;21.50;83.30;;;;;;5060505;28;19979;-75
2023/08/26 09:07:34;;;;;;;;;;;21.50;83.00;;;;;;5061859;28;19992;-75
2023/08/26 09:10:02;;;;;;;;;;;21.50;82.90;;;;;;5057887;28;19986;-75
2023/08/26 09:12:30;;;;;;;;;;;21.60;82.70;;;;;;5058879;28;20069;-75
2023/08/26 09:14:56;;;;;;;;;;;21.60;82.40;;;;;;5057087;28;19995;-75
2023/08/26 09:17:23;;;;;;;;;;;21.60;82.60;;;;;;5063676;28;20000;-75
2023/08/26 09:19:53;;;;;;;;;;;21.60;82.30;;;;;;5065100;28;19983;-75
2023/08/26 09:22:20;;;;;;;;;;;21.60;81.90;;;;;;5064412;28;20058;-74
2023/08/26 09:24:48;;;;;;;;;;;21.70;81.80;;;;;;5061051;28;19979;-74
2023/08/26 09:27:15;;;;;;;;;;;21.70;81.90;;;;;;5065223;28;20465;-75
2023/08/26 09:29:42;;;;;;;;;;;21.70;81.30;;;;;;5060080;28;19979;-75
2023/08/26 09:32:08;;;;;;;;;;;21.70;81.50;;;;;;5059563;28;20665;-75
2023/08/26 09:34:35;;;;;;;;;;;21.70;81.20;;;;;;5059386;28;20445;-75
2023/08/26 09:37:01;;;;;;;;;;;21.70;80.80;;;;;;5063659;28;20681;-75
2023/08/26 09:39:28;;;;;;;;;;;21.80;81.20;;;;;;5057571;28;19979;-76
2023/08/26 09:41:56;;;;;;;;;;;21.70;81.30;;;;;;5060175;28;20002;-75
2023/08/26 09:44:23;;;;;;;;;;;21.80;81.80;;;;;;5057105;28;20061;-75
2023/08/26 09:46:50;;;;;;;;;;;21.80;81.60;;;;;;5057394;28;20540;-75
2023/08/26 09:49:17;;;;;;;;;;;21.80;81.10;;;;;;5060813;28;19979;-76
2023/08/26 09:51:46;;;;;;;;;;;21.80;80.40;;;;;;5057788;28;19986;-75
2023/08/26 09:54:14;;;;;;;;;;;21.90;80.50;;;;;;5062149;28;20070;-76
2023/08/26 09:56:41;;;;;;;;;;;21.90;80.40;;;;;;5063238;28;19999;-76
2023/08/26 09:59:09;;;;;;;;;;;21.90;80.30;;;;;;5061828;28;19979;-74
2023/08/26 10:01:38;;;;;;;;;;;21.90;80.50;;;;;;5061630;28;19999;-75
2023/08/26 10:04:08;;;;;;;;;;;21.90;79.60;;;;;;5058126;28;19984;-75
2023/08/26 10:06:37;;;;;;;;;;;22.00;79.30;;;;;;5059865;28;20685;-75
2023/08/26 10:09:07;;;;;;;;;;;22.00;80.00;;;;;;5061115;28;19984;-75
2023/08/26 10:11:36;;;;;;;;;;;22.00;80.40;;;;;;5065114;28;19979;-75
2023/08/26 10:14:04;;;;;;;;;;;22.00;80.80;;;;;;5062622;28;19979;-75
2023/08/26 10:16:33;;;;;;;;;;;22.00;80.30;;;;;;5063114;28;19999;-76
2023/08/26 10:19:00;;;;;;;;;;;22.10;80.50;;;;;;5062471;28;19975;-75
2023/08/26 10:21:27;;;;;;;;;;;22.10;80.40;;;;;;5059425;28;19991;-76
2023/08/26 10:23:54;;;;;;;;;;;22.10;81.20;;;;;;5058811;28;20016;-75
2023/08/26 10:26:20;;;;;;;;;;;22.10;81.00;;;;;;5060184;28;20480;-74
2023/08/26 10:28:48;;;;;;;;;;;22.10;81.30;;;;;;5063951;28;20019;-75
2023/08/26 10:31:16;;;;;;;;;;;22.10;80.90;;;;;;5060768;28;19994;-76
2023/08/26 10:34:00;;;;;;;;;;;22.10;80.60;;;;;;5059489;28;20404;-76
2023/08/26 10:36:26;;;;;;;;;;;22.10;81.00;;;;;;5059639;28;19991;-75
2023/08/26 10:38:57;;;;;;;;;;;22.20;80.90;;;;;;5061523;28;19975;-75
2023/08/26 10:41:24;;;;;;;;;;;22.10;80.60;;;;;;5062864;28;20076;-76
2023/08/26 10:43:51;;;;;;;;;;;22.10;81.00;;;;;;5052307;28;19983;-75
2023/08/26 10:46:17;;;;;;;;;;;22.10;81.20;;;;;;5061710;28;20056;-75
2023/08/26 10:48:57;;;;;;;;;;;22.20;80.60;;;;;;5056310;28;20357;-75
2023/08/26 10:51:25;;;;;;;;;;;22.20;80.30;;;;;;5059252;28;20502;-74
2023/08/26 10:53:52;;;;;;;;;;;22.20;80.40;;;;;;5055906;28;19982;-76
2023/08/26 10:56:21;;;;;;;;;;;22.20;80.60;;;;;;5058169;28;19995;-74
2023/08/26 10:58:48;;;;;;;;;;;22.10;80.10;;;;;;5056669;28;20003;-76
2023/08/26 11:01:15;;;;;;;;;;;22.20;80.60;;;;;;5059172;28;19992;-75
2023/08/26 11:03:43;;;;;;;;;;;22.10;80.90;;;;;;5059599;28;20002;-75
2023/08/26 11:06:12;;;;;;;;;;;22.20;80.80;;;;;;5061845;28;19999;-75
2023/08/26 11:08:52;;;;;;;;;;;22.10;80.60;;;;;;5057878;28;20062;-75
2023/08/26 11:11:18;;;;;;;;;;;22.20;81.20;;;;;;5060484;28;19975;-75
2023/08/26 11:13:46;;;;;;;;;;;22.20;81.20;;;;;;5061363;28;19979;-75
2023/08/26 11:16:13;;;;;;;;;;;22.10;81.10;;;;;;5062290;28;20048;-76
2023/08/26 11:18:40;;;;;;;;;;;22.20;81.20;;;;;;5059524;28;20030;-75
2023/08/26 11:21:07;;;;;;;;;;;22.20;81.80;;;;;;5059301;28;19980;-75
2023/08/26 11:23:34;;;;;;;;;;;22.20;82.30;;;;;;5061083;28;20042;-75
2023/08/26 11:26:03;;;;;;;;;;;22.10;82.10;;;;;;5059969;28;19991;-75
2023/08/26 11:28:32;;;;;;;;;;;22.20;82.30;;;;;;5055437;28;19975;-75
2023/08/26 11:30:58;;;;;;;;;;;22.20;81.90;;;;;;5059653;28;20490;-75
2023/08/26 11:33:26;;;;;;;;;;;22.20;82.40;;;;;;5056475;28;19982;-76
2023/08/26 11:35:53;;;;;;;;;;;22.10;82.10;;;;;;5063034;28;19999;-75
2023/08/26 11:38:20;;;;;;;;;;;22.10;81.70;;;;;;5057078;28;20847;-77
2023/08/26 11:40:47;;;;;;;;;;;22.10;75.00;;;;;;5058703;28;20460;-75
2023/08/26 11:43:16;;;;;;;;;;;22.10;75.40;;;;;;5056361;28;20479;-76
2023/08/26 11:45:43;;;;;;;;;;;22.10;75.90;;;;;;5050964;28;20114;-75
2023/08/26 11:48:11;;;;;;;;;;;22.10;76.40;;;;;;5054933;28;19991;-76
2023/08/26 11:50:37;;;;;;;;;;;22.20;76.90;;;;;;5053498;28;20015;-76
2023/08/26 11:53:04;;;;;;;;;;;22.30;77.50;;;;;;5059330;28;19975;-76
2023/08/26 11:55:32;;;;;;;;;;;22.40;77.80;;;;;;5056367;28;19975;-76
2023/08/26 11:57:59;;;;;;;;;;;22.40;78.00;;;;;;5054681;28;20009;-76
2023/08/26 12:00:27;;;;;;;;;;;22.50;78.00;;;;;;5056370;28;20003;-75
2023/08/26 12:02:56;;;;;;;;;;;22.50;77.90;;;;;;5055696;28;20358;-76
2023/08/26 12:05:23;;;;;;;;;;;22.60;77.90;;;;;;5058541;28;20002;-76
2023/08/26 12:07:50;;;;;;;;;;;22.60;77.90;;;;;;5057864;28;20026;-76
2023/08/26 12:10:17;;;;;;;;;;;22.70;77.90;;;;;;5058090;28;19980;-76
2023/08/26 12:12:45;;;;;;;;;;;22.70;78.00;;;;;;5052489;28;20077;-76
2023/08/26 12:15:12;;;;;;;;;;;22.70;78.10;;;;;;5057882;28;19982;-76
2023/08/26 12:17:44;;;;;;;;;;;22.80;78.10;;;;;;5060206;28;19999;-75
2023/08/26 12:20:24;;;;;;;;;;;22.70;78.10;;;;;;5056855;28;20041;-76
2023/08/26 12:22:51;;;;;;;;;;;22.80;78.20;;;;;;5054597;28;19988;-76
2023/08/26 12:25:18;;;;;;;;;;;22.80;78.10;;;;;;5054706;28;19975;-75
2023/08/26 12:27:45;;;;;;;;;;;22.80;78.10;;;;;;5057821;28;19978;-76
2023/08/26 12:30:12;;;;;;;;;;;22.80;78.10;;;;;;5054920;28;19982;-75
2023/08/26 12:32:38;;;;;;;;;;;22.80;78.20;;;;;;5057540;28;20437;-75
2023/08/26 12:35:08;;;;;;;;;;;22.80;78.30;;;;;;5055074;28;20022;-76
2023/08/26 12:37:34;;;;;;;;;;;22.80;79.10;;;;;;5055218;28;20615;-75
2023/08/26 12:40:04;;;;;;;;;;;22.80;78.40;;;;;;5053987;28;20309;-76
2023/08/26 12:42:31;;;;;;;;;;;22.80;78.50;;;;;;5055930;28;20536;-76
2023/08/26 12:44:57;;;;;;;;;;;22.80;78.60;;;;;;5057229;28;19982;-76
2023/08/26 12:47:24;;;;;;;;;;;22.80;78.70;;;;;;5054836;28;20006;-77
2023/08/26 12:49:50;;;;;;;;;;;22.80;78.70;;;;;;5057074;28;20081;-76
2023/08/26 12:52:18;;;;;;;;;;;22.80;78.90;;;;;;5057777;28;20336;-76
2023/08/26 12:54:45;;;;;;;;;;;22.80;78.90;;;;;;5056080;28;19986;-76
2023/08/26 12:57:11;;;;;;;;;;;22.80;78.80;;;;;;5057722;28;19995;-76
2023/08/26 12:59:38;;;;;;;;;;;22.80;78.80;;;;;;5051929;28;19976;-76
2023/08/26 13:02:04;;;;;;;;;;;22.80;78.80;;;;;;5052399;28;20105;-76
2023/08/26 13:04:31;;;;;;;;;;;22.80;78.80;;;;;;5060855;28;19979;-76
2023/08/26 13:06:57;;;;;;;;;;;22.80;78.80;;;;;;5060538;28;19996;-75
2023/08/26 13:09:25;;;;;;;;;;;22.80;78.80;;;;;;5062884;28;19979;-76
2023/08/26 13:11:52;;;;;;;;;;;22.80;78.80;;;;;;5056306;28;20005;-76
2023/08/26 13:14:18;;;;;;;;;;;22.80;79.00;;;;;;5062646;28;19982;-76
2023/08/26 13:16:45;;;;;;;;;;;22.80;79.00;;;;;;5058987;28;20467;-76
2023/08/26 13:19:12;;;;;;;;;;;22.80;79.00;;;;;;5063620;28;19983;-75
2023/08/26 13:21:38;;;;;;;;;;;22.80;79.00;;;;;;5061200;28;19976;-75
2023/08/26 13:24:05;;;;;;;;;;;22.70;78.90;;;;;;5064895;28;19999;-76
2023/08/26 13:26:33;;;;;;;;;;;22.70;78.90;;;;;;5061717;28;20022;-76
2023/08/26 13:28:59;;;;;;;;;;;22.70;79.00;;;;;;5054280;28;20425;-76
2023/08/26 13:31:26;;;;;;;;;;;22.70;78.90;;;;;;5063051;28;19998;-76
2023/08/26 13:33:52;;;;;;;;;;;22.70;78.80;;;;;;5062843;28;19979;-76
2023/08/26 13:36:19;;;;;;;;;;;22.70;78.70;;;;;;5060097;28;20023;-75
2023/08/26 13:38:46;;;;;;;;;;;22.70;78.70;;;;;;5059897;28;19980;-76
2023/08/26 13:41:12;;;;;;;;;;;22.70;78.60;;;;;;5053672;28;19976;-75
2023/08/26 13:43:42;;;;;;;;;;;22.70;78.60;;;;;;5063210;28;20006;-76
2023/08/26 13:46:09;;;;;;;;;;;22.70;78.60;;;;;;5057656;28;19999;-76
2023/08/26 13:48:35;;;;;;;;;;;22.70;78.40;;;;;;5061208;28;19971;-76
2023/08/26 13:51:02;;;;;;;;;;;22.70;78.30;;;;;;5059224;28;20515;-76
2023/08/26 13:53:28;;;;;;;;;;;22.70;78.30;;;;;;5060434;28;20508;-76
2023/08/26 13:55:57;;;;;;;;;;;22.60;78.10;;;;;;5054754;28;19991;-76
2023/08/26 13:58:24;;;;;;;;;;;22.70;78.20;;;;;;5056896;28;19980;-76
2023/08/26 14:00:55;;;;;;;;;;;22.70;78.10;;;;;;5055163;28;19991;-75
2023/08/26 14:03:21;;;;;;;;;;;22.70;78.10;;;;;;5056947;28;19996;-75
2023/08/26 14:05:50;;;;;;;;;;;22.60;78.00;;;;;;5060630;28;19999;-76
2023/08/26 14:08:17;;;;;;;;;;;22.60;78.00;;;;;;5057766;28;19976;-75
2023/08/26 14:10:43;;;;;;;;;;;22.60;77.90;;;;;;5060018;28;19982;-75
2023/08/26 14:13:10;;;;;;;;;;;22.60;78.60;;;;;;5059823;28;19976;-75
2023/08/26 14:15:39;;;;;;;;;;;22.60;77.80;;;;;;5057851;28;19998;-75